Latest Weather Observations for Launceston

IDT60801

Issued at 6:32 pm EST Sunday 28 August 2016 (issued every 30 minutes, with the page automatically refreshed every 10 minutes)

About weather observations | Map of weather stations | Latest weather observations for TAS | Other Formats
Station Details ID: 091237 Name: LAUNCESTON (TI TREE BEND) Lat: -41.42 Lon: 147.12 Height: 5.0 m
Data from the previous 72 hours. | See also: Recent months at Launceston
Date/Time
EST
Temp
°C
App
Temp
°C
Dew
Point
°C
Rel
Hum
%
Delta-T
°C
Wind Press
QNH
hPa
Press
MSL
hPa
Rain since
9am
mm
Dir  Spd
km/h
Gust
km/h
Spd
kts
Gust
kts
28/06:30pm 7.8 5.1 3.7 75 1.8 NW 7 9 4 5 - - 0.0
28/06:00pm 8.9 6.7 3.5 69 2.3 NNW 4 4 2 2 - - 0.0
28/05:30pm 10.4 7.7 2.7 59 3.3 NW 6 6 3 3 - - 0.0
28/05:00pm 11.7 8.3 1.9 51 4.2 NNW 9 11 5 6 - - 0.0
28/04:30pm 12.3 8.9 1.6 48 4.6 NNW 9 13 5 7 - - 0.0
28/04:00pm 12.8 9.7 0.2 42 5.2 NW 6 9 3 5 - - 0.0
28/03:30pm 12.1 9.9 0.8 46 4.7 S 2 4 1 2 - - 0.0
28/03:00pm 12.0 9.0 1.1 47 4.6 SSE 6 9 3 5 - - 0.0
28/02:30pm 12.7 10.0 0.1 42 5.2 WSW 4 9 2 5 - - 0.0
28/02:00pm 12.8 9.6 -0.4 40 5.4 NNE 6 11 3 6 - - 0.0
28/01:30pm 11.9 9.1 -0.3 43 5.0 ENE 4 6 2 3 - - 0.0
28/01:00pm 11.4 8.2 -0.7 43 4.8 SE 6 15 3 8 - - 0.0
28/12:30pm 12.0 8.8 -0.2 43 5.0 SSE 6 11 3 6 - - 0.0
28/12:00pm 10.9 7.0 -1.8 41 4.9 S 9 17 5 9 - - 0.0
28/11:30am 11.2 7.6 0.3 47 4.5 SSW 9 19 5 10 - - 0.0
28/11:00am 11.1 6.7 0.2 47 4.4 SSE 13 20 7 11 - - 0.0
28/10:30am 10.6 5.4 0.1 48 4.3 S 17 22 9 12 - - 0.0
28/10:00am 10.8 7.1 0.0 47 4.4 SSE 9 15 5 8 - - 0.0
28/09:30am 9.5 5.4 0.1 52 3.8 S 11 24 6 13 - - 0.0
28/09:00am 9.0 5.6 2.1 62 2.9 SE 9 19 5 10 - - 6.2
28/08:30am 8.7 6.2 3.9 72 2.1 SE 6 9 3 5 - - 6.2
28/08:00am 8.1 6.5 4.7 79 1.5 SE 2 4 1 2 - - 6.2
28/07:30am 6.9 4.4 3.7 80 1.4 ESE 6 9 3 5 - - 6.2
28/07:00am 5.8 3.1 2.4 79 1.4 ESE 6 7 3 4 - - 6.2
28/06:30am 6.2 3.4 2.3 76 1.6 SE 6 7 3 4 - - 6.2
28/06:00am 6.9 4.0 2.4 73 1.9 S 7 13 4 7 - - 6.2
28/05:30am 7.8 3.8 3.1 72 2.0 SSW 13 20 7 11 - - 6.2
28/05:00am 7.6 3.9 4.7 82 1.3 SW 13 24 7 13 - - 6.2
28/04:30am 7.7 5.3 7.0 95 0.3 WSW 9 11 5 6 - - 6.2
28/04:00am 7.9 6.4 7.0 94 0.4 W 4 6 2 3 - - 6.2
28/03:30am 8.7 7.4 7.6 93 0.5 NW 4 6 2 3 - - 6.2
28/03:00am 9.2 7.4 8.0 92 0.6 NW 7 11 4 6 - - 6.0
28/02:30am 9.8 7.0 8.4 91 0.7 NW 13 20 7 11 - - 6.0
28/02:00am 10.1 6.2 8.5 90 0.8 NW 19 32 10 17 - - 6.0
28/01:30am 10.5 6.8 9.3 92 0.6 NNW 19 28 10 15 - - 6.0
28/01:00am 10.6 6.3 9.4 92 0.6 NW 22 30 12 16 - - 5.8
28/12:30am 10.6 6.2 9.0 90 0.8 NW 22 35 12 19 - - 4.2
28/12:03am 10.7 5.2 9.0 89 0.8 NW 28 46 15 25 - - 3.6
28/12:00am 10.7 4.8 9.0 89 0.8 NW 30 43 16 23 - - 3.6
 
Date/Time
EST
Temp
°C
App
Temp
°C
Dew
Point
°C
Rel
Hum
%
Delta-T
°C
Wind Press
QNH
hPa
Press
MSL
hPa
Rain since
9am
mm
Dir  Spd
km/h
Gust
km/h
Spd
kts
Gust
kts
27/11:53pm 10.7 5.2 9.0 89 0.8 NW 28 48 15 26 - - 3.6
27/11:30pm 10.6 5.8 8.9 89 0.8 NW 24 37 13 20 - - 3.4
27/11:00pm 10.4 5.6 8.8 90 0.8 NW 24 39 13 21 - - 3.4
27/10:30pm 10.3 5.9 9.1 92 0.6 NW 22 33 12 18 - - 3.0
27/10:00pm 10.1 6.1 9.2 94 0.4 NNW 20 30 11 16 - - 2.6
27/09:30pm 10.1 5.4 9.2 94 0.4 NW 24 33 13 18 - - 2.0
27/09:00pm 10.3 5.1 8.9 91 0.7 NNW 26 39 14 21 - - 0.8
27/08:30pm 10.3 5.6 9.1 92 0.6 NNW 24 39 13 21 - - 0.4
27/08:00pm 10.5 6.1 8.8 89 0.8 NNW 22 35 12 19 - - 0.0
27/07:30pm 10.8 6.8 8.2 84 1.3 NNW 19 28 10 15 - - 0.0
27/07:00pm 10.9 7.3 8.3 84 1.3 NNW 17 24 9 13 - - 0.0
27/06:30pm 10.7 7.4 7.9 83 1.4 NNW 15 24 8 13 - - 0.0
27/06:00pm 10.9 7.2 8.1 83 1.4 NNW 17 28 9 15 - - 0.0
27/05:30pm 10.9 6.7 8.1 83 1.4 N 20 33 11 18 - - 0.0
27/05:00pm 10.8 6.4 9.1 89 0.8 NNW 22 35 12 19 - - 0.0
27/04:30pm 11.8 6.1 8.5 80 1.6 NNW 28 43 15 23 - - 0.0
27/04:00pm 12.2 6.9 8.5 78 1.8 NNW 26 43 14 23 - - 0.0
27/03:30pm 12.6 7.3 8.5 76 2.0 NNW 26 39 14 21 - - 0.0
27/03:00pm 12.8 7.1 8.5 75 2.1 NNW 28 37 15 20 - - 0.0
27/02:30pm 12.9 7.5 8.2 73 2.3 NNW 26 37 14 20 - - 0.0
27/02:00pm 12.9 8.0 8.4 74 2.2 NW 24 33 13 18 - - 0.0
27/01:30pm 12.9 7.5 7.8 71 2.5 NNW 26 37 14 20 - - 0.0
27/01:00pm 14.1 9.1 8.1 67 3.0 NNW 24 37 13 20 - - 0.0
27/12:32pm 13.1 7.3 7.8 70 2.6 NW 28 48 15 26 - - 0.0
27/12:30pm 13.2 8.0 7.4 68 2.8 NW 24 48 13 26 - - 0.0
27/12:00pm 13.5 8.0 7.5 67 2.9 NNW 26 41 14 22 - - 0.0
27/11:30am 12.9 8.8 8.0 72 2.4 NW 19 32 10 17 - - 0.0
27/11:00am 12.2 8.0 8.1 76 2.0 NNW 20 30 11 16 - - 0.0
27/10:30am 12.2 7.6 8.1 76 2.0 NNW 22 33 12 18 - - 0.0
27/10:00am 11.8 7.0 7.5 75 2.1 NNW 22 33 12 18 - - 0.0
27/09:30am 11.3 8.0 8.2 81 1.5 NNW 15 20 8 11 - - 0.0
27/09:00am 10.1 7.1 7.7 85 1.2 NNW 13 19 7 10 - - 0.0
27/08:30am 9.0 7.4 8.1 94 0.4 NW 6 9 3 5 - - 0.0
27/08:00am 7.8 6.4 7.2 96 0.3 N 4 4 2 2 - - 0.0
27/07:30am 6.9 5.3 6.5 97 0.2 NNW 4 6 2 3 - - 0.0
27/07:00am 5.4 3.9 4.8 96 0.3 WNW 2 4 1 2 - - 0.0
27/06:30am 5.4 3.8 4.7 95 0.3 WNW 2 4 1 2 - - 0.0
27/06:00am 6.1 3.7 5.2 94 0.4 NW 7 9 4 5 - - 0.0
27/05:30am 6.5 4.2 5.8 95 0.3 WNW 7 9 4 5 - - 0.0
27/05:00am 6.5 3.9 5.9 96 0.3 NW 9 13 5 7 - - 0.0
27/04:30am 6.3 4.2 5.7 96 0.3 WNW 6 7 3 4 - - 0.0
27/04:00am 6.8 4.2 6.2 96 0.3 NW 9 11 5 6 - - 0.0
27/03:30am 6.5 4.3 6.1 97 0.2 WNW 7 15 4 8 - - 0.0
27/03:00am 5.6 3.7 5.0 96 0.3 WNW 4 6 2 3 - - 0.0
27/02:30am 5.5 3.2 4.9 96 0.3 NW 6 7 3 4 - - 0.0
27/02:00am 4.4 2.6 3.5 94 0.4 NNW 2 6 1 3 - - 0.0
27/01:30am 5.6 4.4 4.7 94 0.4 CALM 0 0 0 0 - - 0.0
27/01:00am 5.8 4.3 4.8 93 0.4 NW 2 4 1 2 - - 0.0
27/12:30am 6.1 4.6 5.1 93 0.4 NNW 2 4 1 2 - - 0.0
27/12:00am 6.0 4.0 4.6 91 0.6 WNW 4 6 2 3 - - 0.0
 
Date/Time
EST
Temp
°C
App
Temp
°C
Dew
Point
°C
Rel
Hum
%
Delta-T
°C
Wind Press
QNH
hPa
Press
MSL
hPa
Rain since
9am
mm
Dir  Spd
km/h
Gust
km/h
Spd
kts
Gust
kts
26/11:30pm 6.4 3.9 5.0 91 0.6 NW 7 9 4 5 - - 0.0
26/11:00pm 5.7 3.3 4.3 91 0.6 NW 6 9 3 5 - - 0.0
26/10:30pm 5.5 3.1 4.5 93 0.4 WNW 6 7 3 4 - - 0.0
26/10:00pm 5.9 4.3 4.7 92 0.5 WNW 2 4 1 2 - - 0.0
26/09:30pm 6.6 4.8 5.4 92 0.5 N 4 6 2 3 - - 0.0
26/09:00pm 7.4 5.3 6.0 91 0.6 NNW 6 6 3 3 - - 0.0
26/08:30pm 7.6 5.4 6.2 91 0.6 NW 7 9 4 5 - - 0.0
26/08:00pm 8.2 6.1 6.5 89 0.8 NW 7 9 4 5 - - 0.0
26/07:30pm 8.8 6.3 6.6 86 1.0 NW 9 13 5 7 - - 0.0
26/07:00pm 9.1 7.2 6.5 84 1.2 NW 6 7 3 4 - - 0.0
26/06:30pm 9.8 7.0 6.9 82 1.4 NW 11 15 6 8 - - 0.0
26/06:00pm 10.2 7.0 6.7 79 1.6 NNW 13 19 7 10 - - 0.0
26/05:30pm 11.3 8.0 6.6 73 2.2 NNW 13 19 7 10 - - 0.0
26/05:00pm 12.4 8.4 6.5 67 2.8 NNW 17 24 9 13 - - 0.0
26/04:30pm 12.9 8.4 6.3 64 3.1 NNW 19 24 10 13 - - 0.0
26/04:00pm 13.1 9.2 7.3 68 2.8 NNW 17 26 9 14 - - 0.0
26/03:30pm 13.4 9.2 7.6 68 2.8 NNW 19 28 10 15 - - 0.0
26/03:00pm 13.1 8.3 7.5 69 2.7 NNW 22 32 12 17 - - 0.0
26/02:30pm 13.3 8.5 7.3 67 2.9 NNW 22 30 12 16 - - 0.0
26/02:00pm 13.6 9.2 7.6 67 2.9 NNW 20 28 11 15 - - 0.0
26/01:30pm 13.0 8.6 7.2 68 2.8 NNW 20 30 11 16 - - 0.0
26/01:00pm 13.3 9.2 6.2 62 3.4 NW 17 24 9 13 - - 0.0
26/12:30pm 13.3 8.8 5.9 61 3.5 NNW 19 28 10 15 - - 0.0
26/12:00pm 12.6 8.5 6.2 65 3.0 N 17 24 9 13 - - 0.0
26/11:30am 11.1 7.8 6.5 73 2.2 NW 13 22 7 12 - - 0.0
26/11:00am 8.6 6.0 6.2 85 1.1 NW 9 15 5 8 - - 0.0
26/10:30am 6.2 4.5 5.9 98 0.1 WNW 4 9 2 5 - - 0.0
26/10:00am 5.2 4.1 5.1 99 0.0 CALM 0 0 0 0 - - 0.0
26/09:30am 2.8 1.2 2.7 99 0.0 CALM 0 0 0 0 - - 0.0
26/09:00am 2.1 0.4 2.0 99 0.0 CALM 0 0 0 0 - - 0.2
26/08:30am 1.1 -0.7 1.0 99 0.0 CALM 0 0 0 0 - - 0.2
26/08:00am 1.1 -1.1 1.0 99 0.0 NE 2 4 1 2 - - 0.2
26/07:30am 1.1 -0.7 1.0 99 0.0 CALM 0 2 0 1 - - 0.2
26/07:00am 1.3 -0.5 1.2 99 0.0 CALM 0 0 0 0 - - 0.2
26/06:30am 1.3 -0.9 1.2 99 0.0 E 2 4 1 2 - - 0.2
26/06:00am 1.5 -0.7 1.2 98 0.1 NNW 2 4 1 2 - - 0.2
26/05:30am 1.7 -0.8 1.4 98 0.1 NNW 4 4 2 2 - - 0.2
26/05:00am 1.9 -0.2 1.6 98 0.1 NNW 2 4 1 2 - - 0.2
26/04:30am 1.5 -0.3 1.2 98 0.1 CALM 0 4 0 2 - - 0.2
26/04:00am 1.9 -0.2 1.6 98 0.1 E 2 4 1 2 - - 0.2
26/03:30am 1.3 -0.5 0.9 97 0.1 CALM 0 0 0 0 - - 0.2
26/03:00am 1.9 -0.6 1.5 97 0.2 E 4 6 2 3 - - 0.2
26/02:30am 2.4 0.7 2.0 97 0.2 CALM 0 0 0 0 - - 0.2
26/02:00am 2.3 0.6 1.9 97 0.2 CALM 0 0 0 0 - - 0.2
26/01:30am 2.9 1.3 2.5 97 0.2 CALM 0 0 0 0 - - 0.2
26/01:00am 3.0 1.0 2.4 96 0.2 N 2 4 1 2 - - 0.2
26/12:30am 3.4 1.9 2.8 96 0.2 CALM 0 0 0 0 - - 0.2
26/12:00am 4.1 2.7 3.5 96 0.2 CALM 0 0 0 0 - - 0.2
 
Date/Time
EST
Temp
°C
App
Temp
°C
Dew
Point
°C
Rel
Hum
%
Delta-T
°C
Wind Press
QNH
hPa
Press
MSL
hPa
Rain since
9am
mm
Dir  Spd
km/h
Gust
km/h
Spd
kts
Gust
kts
25/11:30pm 4.8 2.4 4.2 96 0.3 N 6 7 3 4 - - 0.2
25/11:00pm 4.4 3.0 3.7 95 0.3 CALM 0 0 0 0 - - 0.2
25/10:30pm 5.1 3.8 4.2 94 0.4 CALM 0 0 0 0 - - 0.0
25/10:00pm 5.2 3.9 4.2 93 0.4 CALM 0 0 0 0 - - 0.0
25/09:30pm 6.9 6.0 6.0 94 0.4 CALM 0 4 0 2 - - 0.0
25/09:00pm 6.8 5.8 5.4 91 0.6 CALM 0 4 0 2 - - 0.0
25/08:30pm 7.7 6.8 6.0 89 0.8 CALM 0 0 0 0 - - 0.0
25/08:00pm 8.6 7.6 5.5 81 1.4 CALM 0 0 0 0 - - 0.0
25/07:30pm 9.7 7.6 5.9 77 1.7 NNW 6 11 3 6 - - 0.0
25/07:00pm 9.9 7.6 5.7 75 1.9 NW 7 17 4 9 - - 0.0

Other Formats:

Comma delimited format used in spreadsheet applications
http://www.bom.gov.au/fwo/IDT60801/IDT60801.94969.axf

JavaScript Object Notation format (JSON) in row-major order
http://www.bom.gov.au/fwo/IDT60801/IDT60801.94969.json